»·PEaware :: DAL1678 KSLC-KBOI

DAL1678 :: KSLC-KBOI

FLIGHT INFORMATION

Flight Status: Arrived
Operator:
Delta Air Lines
More flights by this operator :: More flights under this callsign
Pilot: Joe P. (13940)
Aircraft: MCDONNELL-DOUGLAS MD-82
(MD82)
More flights by this aircraft type
Origin: KSLC Salt Lake City Intl
United States
Destination: KBOI Boise Air Terminal/Gowen
United States
More flights between these airports :: More routes between these airports
Route: CGULL1 TWF BROPH SPUUD3
File this flight plan on PilotEdge
Remarks: SEL / ABCD KTWF -PBN / B3B4B5D3D4 DOF / 180703 REG / N904DL
Altitude:
(Current/Filed)
320ft
Speed:
(Current/Filed)
465kts
Departed: 03-Jul-18 05:53 AM
Arrived: 03-Jul-18 06:39 AM
Distance/Time
Traveled:
252nm/0:46
Distance/Time
To Go:
Arrived

Flight Plot

Page will automatically refresh every two minutes.

Flight plan parsing failed; only flown route is shown


Map Options




Map Legend


Flown Route
Filed Route
Departure Airport
Arrival Airport
Navaid (VOR, NDB)
Fix

Horizontal Profiles

Position Reports

Time Latitude Longitude Heading Altitude Ground
Speed
03-Jul-18 05:08 40.785586 -111.978056 231 4236ft 0kts
03-Jul-18 05:09 40.785586 -111.978056 231 4236ft 0kts
03-Jul-18 05:10 40.785586 -111.978056 231 4236ft 0kts
03-Jul-18 05:11 40.785586 -111.978056 231 4236ft 0kts
03-Jul-18 05:12 40.785586 -111.978056 231 4236ft 0kts
03-Jul-18 05:13 40.785586 -111.978056 231 4236ft 0kts
03-Jul-18 05:14 40.785586 -111.978056 231 4236ft 0kts
03-Jul-18 05:15 40.785586 -111.978056 231 4236ft 0kts
03-Jul-18 05:16 40.785586 -111.978056 231 4236ft 0kts
03-Jul-18 05:17 40.785586 -111.978056 231 4236ft 0kts
03-Jul-18 05:18 40.785586 -111.978056 231 4236ft 0kts
03-Jul-18 05:19 40.785586 -111.978056 231 4236ft 0kts
03-Jul-18 05:20 40.785586 -111.978056 231 4236ft 0kts
03-Jul-18 05:21 40.785586 -111.978056 231 4236ft 0kts
03-Jul-18 05:22 40.785586 -111.978056 231 4236ft 0kts
03-Jul-18 05:23 40.785586 -111.978056 231 4236ft 0kts
03-Jul-18 05:24 40.785586 -111.978056 231 4236ft 0kts
03-Jul-18 05:25 40.785586 -111.978056 231 4236ft 0kts
03-Jul-18 05:26 40.785586 -111.978056 231 4236ft 0kts
03-Jul-18 05:27 40.785586 -111.978056 231 4236ft 0kts
03-Jul-18 05:28 40.785586 -111.978056 231 4236ft 0kts
03-Jul-18 05:29 40.785586 -111.978056 231 4236ft 0kts
03-Jul-18 05:30 40.785586 -111.978056 231 4236ft 0kts
03-Jul-18 05:31 40.785586 -111.978056 231 4236ft 0kts
03-Jul-18 05:32 40.785586 -111.978056 231 4236ft 0kts
03-Jul-18 05:33 40.785586 -111.978056 231 4236ft 0kts
03-Jul-18 05:34 40.785586 -111.978056 231 4236ft 0kts
03-Jul-18 05:35 40.785586 -111.978056 231 4236ft 0kts
03-Jul-18 05:36 40.785586 -111.978056 231 4236ft 0kts
03-Jul-18 05:37 40.785586 -111.978056 231 4236ft 0kts
03-Jul-18 05:38 40.785586 -111.978056 231 4236ft 0kts
03-Jul-18 05:39 40.785586 -111.978056 231 4236ft 0kts
03-Jul-18 05:40 40.785586 -111.978056 231 4236ft 0kts
03-Jul-18 05:41 40.785586 -111.978056 231 4236ft 0kts
03-Jul-18 05:42 40.785586 -111.978056 231 4236ft 0kts
03-Jul-18 05:43 40.785789 -111.977673 243 4236ft 2kts
03-Jul-18 05:44 40.785861 -111.976624 286 4236ft 2kts
03-Jul-18 05:45 40.785806 -111.976429 293 4236ft 0kts
03-Jul-18 05:46 40.785807 -111.976431 293 4236ft 0kts
03-Jul-18 05:47 40.785833 -111.976509 293 4236ft 2kts
03-Jul-18 05:48 40.787568 -111.976854 355 4236ft 13kts
03-Jul-18 05:49 40.793109 -111.977513 354 4236ft 21kts
03-Jul-18 05:49 40.797624 -111.978034 355 4236ft 17kts
03-Jul-18 05:50 40.801861 -111.978537 354 4236ft 13kts
03-Jul-18 05:51 40.805356 -111.978918 354 4236ft 13kts
03-Jul-18 05:52 40.807280 -111.977199 121 4236ft 9kts
03-Jul-18 05:53 40.789285 -111.974723 175 4240ft 163kts
03-Jul-18 05:54 40.743802 -111.965818 169 6280ft 189kts
03-Jul-18 05:55 40.706771 -111.994693 277 7364ft 246kts
03-Jul-18 05:56 40.745185 -112.080900 316 8802ft 294kts
03-Jul-18 05:57 40.811538 -112.151407 320 10660ft 329kts
03-Jul-18 05:58 40.885552 -112.228246 317 13109ft 344kts
03-Jul-18 05:59 40.961340 -112.308941 316 15532ft 354kts
03-Jul-18 06:00 41.038889 -112.391791 315 17828ft 363kts
03-Jul-18 06:01 41.122321 -112.471799 321 19851ft 379kts
03-Jul-18 06:02 41.211870 -112.549851 316 21660ft 388kts
03-Jul-18 06:03 41.295885 -112.641416 308 23403ft 392kts
03-Jul-18 06:04 41.368973 -112.750907 304 25006ft 399kts
03-Jul-18 06:05 41.443445 -112.862303 304 26399ft 407kts
03-Jul-18 06:06 41.518282 -112.977099 304 27621ft 414kts
03-Jul-18 06:07 41.594419 -113.094277 303 28686ft 420kts
03-Jul-18 06:08 41.671444 -113.212988 303 29576ft 426kts
03-Jul-18 06:09 41.749316 -113.332640 303 30609ft 424kts
03-Jul-18 06:10 41.826118 -113.452346 302 31662ft 421kts
03-Jul-18 06:11 41.902932 -113.571384 302 32069ft 421kts
03-Jul-18 06:12 41.979011 -113.690945 302 32075ft 422kts
03-Jul-18 06:13 42.055020 -113.810481 301 32089ft 420kts
03-Jul-18 06:14 42.131025 -113.930200 302 32098ft 421kts
03-Jul-18 06:15 42.207396 -114.050286 301 32105ft 420kts
03-Jul-18 06:16 42.282582 -114.170909 301 32112ft 420kts
03-Jul-18 06:17 42.358164 -114.291010 301 32121ft 420kts
03-Jul-18 06:18 42.433576 -114.411494 301 32126ft 418kts
03-Jul-18 06:19 42.508494 -114.532269 301 32128ft 418kts
03-Jul-18 06:20 42.583916 -114.653005 301 32122ft 418kts
03-Jul-18 06:21 42.659398 -114.773757 301 30596ft 426kts
03-Jul-18 06:22 42.735899 -114.895208 304 27516ft 416kts
03-Jul-18 06:23 42.813928 -115.007418 305 24866ft 397kts
03-Jul-18 06:24 42.888632 -115.113962 305 22177ft 382kts
03-Jul-18 06:25 42.959340 -115.216408 305 19793ft 362kts
03-Jul-18 06:26 43.026868 -115.314470 305 17494ft 346kts
03-Jul-18 06:27 43.091307 -115.407262 305 15361ft 327kts
03-Jul-18 06:28 43.151717 -115.495626 306 13259ft 309kts
03-Jul-18 06:29 43.211861 -115.584097 309 11213ft 315kts
03-Jul-18 06:30 43.267360 -115.666375 310 10208ft 269kts
03-Jul-18 06:31 43.325316 -115.735869 319 9430ft 282kts
03-Jul-18 06:32 43.386012 -115.803862 320 8523ft 281kts
03-Jul-18 06:33 43.438038 -115.879959 308 7557ft 252kts
03-Jul-18 06:34 43.472629 -115.950912 294 6690ft 183kts
03-Jul-18 06:35 43.494235 -116.013978 295 5933ft 184kts
03-Jul-18 06:36 43.515284 -116.075171 297 4988ft 156kts
03-Jul-18 06:37 43.532669 -116.126989 295 4362ft 154kts
03-Jul-18 06:38 43.550975 -116.180525 297 3125ft 142kts
03-Jul-18 06:39 43.563248 -116.216019 326 2843ft 16kts
03-Jul-18 06:40 43.564559 -116.216410 7 2843ft 11kts
03-Jul-18 06:41 43.566170 -116.219231 285 2843ft 9kts
03-Jul-18 06:42 43.567726 -116.225949 294 2843ft 23kts
03-Jul-18 06:43 43.569865 -116.232281 295 2843ft 17kts
03-Jul-18 06:44 43.570730 -116.239575 246 2843ft 19kts
03-Jul-18 06:45 43.567230 -116.242416 243 2843ft 9kts
03-Jul-18 06:46 43.567383 -116.243609 278 2843ft 0kts
03-Jul-18 06:47 43.567383 -116.243609 278 2843ft 0kts
03-Jul-18 06:48 43.567383 -116.243609 278 2843ft 0kts
03-Jul-18 06:49 43.567383 -116.243609 278 2843ft 0kts
03-Jul-18 06:50 43.567383 -116.243609 278 2843ft 0kts
03-Jul-18 06:51 43.567383 -116.243609 278 2843ft 0kts
03-Jul-18 06:52 43.567383 -116.243609 278 2843ft 0kts
03-Jul-18 06:53 43.567383 -116.243609 278 2843ft 0kts

Navigation Log

Ident Type
Flight plan parsing failed, navigation log unavailable